Time;durP1;ratioP1;P1;durP2;ratioP2;P2;SDS_P1;SDS_P2;PMS_P1;PMS_P2;Temp;Humidity;BMP_temperature;BMP_pressure;BME280_temperature;BME280_humidity;BME280_pressure;Samples;Min_cycle;Max_cycle;Signal;HPM_P1;HPM_P2
2022/07/10 00:00:40;;;;;;;4.32;2.30;;;;;;;19.02;54.95;93244.75;2071407;69;20139;-73
2022/07/10 00:03:06;;;;;;;2.25;1.65;;;;;;;19.39;54.57;93238.28;2071637;69;20524;-72
2022/07/10 00:05:34;;;;;;;5.90;2.00;;;;;;;19.23;56.14;93234.81;2068269;69;20171;-72
2022/07/10 00:08:00;;;;;;;2.85;2.10;;;;;;;19.20;55.46;93236.88;2071301;69;20578;-73
2022/07/10 00:10:28;;;;;;;4.47;1.92;;;;;;;19.27;54.95;93232.13;2071298;69;20206;-73
2022/07/10 00:12:56;;;;;;;2.83;1.90;;;;;;;19.24;55.06;93236.28;2067414;69;20152;-73
2022/07/10 00:15:22;;;;;;;3.20;1.92;;;;;;;19.21;55.17;93234.75;2068239;69;20163;-72
2022/07/10 00:17:48;;;;;;;4.68;1.60;;;;;;;19.20;55.07;93234.03;2068199;69;20144;-72
2022/07/10 00:20:14;;;;;;;3.30;1.45;;;;;;;19.23;54.30;93234.81;2067579;69;20597;-72
2022/07/10 00:22:40;;;;;;;2.58;1.50;;;;;;;19.20;54.32;93222.63;2068041;69;20140;-73
2022/07/10 00:25:09;;;;;;;4.93;1.50;;;;;;;19.22;53.38;93224.81;2068185;69;20133;-72
2022/07/10 00:27:34;;;;;;;4.25;1.48;;;;;;;19.34;53.13;93222.41;2068130;69;20136;-72
2022/07/10 00:30:01;;;;;;;1.83;1.40;;;;;;;19.22;55.77;93224.81;2068216;69;20156;-72
2022/07/10 00:32:27;;;;;;;4.22;1.80;;;;;;;19.22;54.94;93216.97;2068025;69;20613;-73
2022/07/10 00:34:52;;;;;;;2.80;1.67;;;;;;;19.19;55.88;93211.84;2068460;69;20612;-73
2022/07/10 00:37:20;;;;;;;4.25;2.05;;;;;;;19.08;55.99;93216.44;2067972;69;20141;-73
2022/07/10 00:39:47;;;;;;;6.03;1.80;;;;;;;19.17;55.39;93208.91;2068119;69;20194;-73
2022/07/10 00:42:15;;;;;;;4.50;1.85;;;;;;;19.15;56.01;93211.69;2068007;69;20255;-73
2022/07/10 00:44:42;;;;;;;2.80;1.60;;;;;;;19.13;56.21;93203.06;2068662;69;20227;-72
2022/07/10 00:47:09;;;;;;;4.05;1.70;;;;;;;19.19;54.21;93204.00;2068175;69;20136;-73
2022/07/10 00:49:39;;;;;;;8.23;2.00;;;;;;;19.25;53.80;93204.25;2068486;69;20145;-72
2022/07/10 00:52:08;;;;;;;5.00;1.90;;;;;;;19.26;54.61;93204.97;2068001;69;20152;-72
2022/07/10 00:54:36;;;;;;;3.80;2.10;;;;;;;19.11;56.37;93195.16;2068678;69;20668;-73
2022/07/10 00:57:07;;;;;;;2.45;1.60;;;;;;;19.06;57.23;93187.84;2068576;69;20639;-74
2022/07/10 00:59:34;;;;;;;6.20;1.90;;;;;;;19.25;55.38;93181.41;2067730;69;20156;-73
2022/07/10 01:02:03;;;;;;;3.28;1.80;;;;;;;19.18;56.35;93184.69;2068307;69;20152;-73
2022/07/10 01:04:29;;;;;;;3.58;1.70;;;;;;;19.18;55.10;93184.69;2068690;69;20207;-74
2022/07/10 01:06:55;;;;;;;2.63;1.90;;;;;;;19.18;56.67;93184.69;2067415;69;20225;-73
2022/07/10 01:09:21;;;;;;;5.88;2.00;;;;;;;19.13;56.57;93180.22;2067653;69;20153;-73
2022/07/10 01:11:46;;;;;;;4.80;2.10;;;;;;;19.17;55.76;93171.81;2067646;69;20144;-74
2022/07/10 01:14:13;;;;;;;2.83;1.77;;;;;;;19.29;54.47;93161.56;2068254;69;20144;-73
2022/07/10 01:16:40;;;;;;;4.97;1.85;;;;;;;18.99;55.89;93166.91;2068498;69;20236;-73
2022/07/10 01:19:06;;;;;;;3.72;1.90;;;;;;;18.97;56.91;93166.84;2068466;69;20145;-73
2022/07/10 01:21:33;;;;;;;5.88;1.98;;;;;;;18.92;57.29;93170.94;2068451;69;20164;-73
2022/07/10 01:24:03;;;;;;;2.47;1.90;;;;;;;19.06;56.73;93165.03;2068445;69;20181;-73
2022/07/10 01:26:30;;;;;;;4.05;1.85;;;;;;;19.04;57.69;93167.78;2068348;69;20231;-73
2022/07/10 01:28:56;;;;;;;5.88;1.83;;;;;;;19.01;57.02;93163.38;2068583;69;20195;-73
2022/07/10 01:31:26;;;;;;;4.90;1.70;;;;;;;19.06;56.83;93153.59;2068490;69;20172;-72
2022/07/10 01:33:53;;;;;;;5.38;1.88;;;;;;;18.98;57.26;93156.88;2068438;69;20579;-72
2022/07/10 01:36:21;;;;;;;4.30;2.05;;;;;;;19.02;56.69;93147.75;2067797;69;20588;-72
2022/07/10 01:38:48;;;;;;;2.33;1.70;;;;;;;19.05;56.46;93149.25;2068660;69;20163;-72
2022/07/10 01:41:15;;;;;;;6.72;1.70;;;;;;;19.10;56.05;93150.16;2067957;69;20149;-72
2022/07/10 01:43:42;;;;;;;4.38;2.30;;;;;;;18.29;59.84;93142.84;2067792;69;20143;-73
2022/07/10 01:46:10;;;;;;;4.55;2.08;;;;;;;18.46;57.68;93149.88;2067927;69;20157;-72
2022/07/10 01:48:38;;;;;;;4.43;2.22;;;;;;;18.76;57.23;93138.94;2067938;69;20240;-73
2022/07/10 01:51:06;;;;;;;4.32;2.08;;;;;;;18.81;57.97;93139.81;2066872;69;20143;-73
2022/07/10 01:53:32;;;;;;;6.78;2.38;;;;;;;18.87;57.72;93140.03;2067694;69;20153;-73
2022/07/10 01:56:04;;;;;;;3.40;2.28;;;;;;;18.85;57.31;93132.16;2067752;69;20176;-72
2022/07/10 01:58:30;;;;;;;5.95;2.30;;;;;;;18.86;57.33;93127.91;2068341;69;20228;-72
2022/07/10 02:00:56;;;;;;;4.15;1.90;;;;;;;18.89;56.63;93105.91;2068361;69;20223;-72
2022/07/10 02:06:07;;;;;;;5.82;2.20;;;;;;;18.76;57.06;93111.16;2068344;69;20152;-72
2022/07/10 02:08:33;;;;;;;3.13;2.00;;;;;;;18.70;57.75;93098.78;2068388;69;20473;-72
2022/07/10 02:10:58;;;;;;;4.25;2.10;;;;;;;18.53;58.08;93097.41;2068396;69;20147;-72
2022/07/10 02:13:27;;;;;;;2.70;1.75;;;;;;;18.61;56.44;93102.69;2064858;69;20161;-72
2022/07/10 02:15:56;;;;;;;2.60;1.70;;;;;;;18.56;56.93;93101.09;2067842;69;20153;-72
2022/07/10 02:18:22;;;;;;;3.70;1.63;;;;;;;18.67;56.42;93108.63;2067724;69;20164;-73
2022/07/10 02:20:51;;;;;;;5.00;2.05;;;;;;;18.60;57.28;93118.31;2068278;69;20160;-72
2022/07/10 02:23:17;;;;;;;3.47;1.80;;;;;;;18.61;57.62;93120.53;2067696;69;20168;-74
2022/07/10 02:25:44;;;;;;;6.10;2.15;;;;;;;18.58;58.70;93132.53;2067813;69;20608;-74
2022/07/10 02:28:12;;;;;;;4.47;2.17;;;;;;;18.65;57.35;93137.81;2068338;69;20659;-73
2022/07/10 02:30:38;;;;;;;3.22;2.20;;;;;;;18.65;57.86;93143.50;2068246;69;20141;-74
2022/07/10 02:33:05;;;;;;;4.82;2.10;;;;;;;18.74;56.58;93142.44;2067759;69;20163;-74
2022/07/10 02:35:31;;;;;;;4.55;2.10;;;;;;;18.31;59.82;93145.75;2067852;69;20485;-74
2022/07/10 02:37:58;;;;;;;4.28;2.28;;;;;;;18.33;59.63;93156.50;2068315;69;20680;-73
2022/07/10 02:40:28;;;;;;;3.42;2.10;;;;;;;18.56;58.56;93158.84;2068301;69;20153;-73
2022/07/10 02:42:53;;;;;;;5.05;2.00;;;;;;;18.53;60.15;93151.59;2068208;69;20148;-74
2022/07/10 02:45:19;;;;;;;4.82;2.10;;;;;;;18.36;61.23;93155.91;2068150;69;20233;-73
2022/07/10 02:47:47;;;;;;;4.05;1.90;;;;;;;18.43;61.96;93159.75;2068269;69;20140;-73
2022/07/10 02:50:12;;;;;;;3.88;1.90;;;;;;;18.43;61.10;93165.44;2067777;69;20180;-73
2022/07/10 02:52:38;;;;;;;2.95;2.05;;;;;;;18.44;60.97;93164.78;2067543;69;20543;-74
2022/07/10 02:55:05;;;;;;;5.30;2.05;;;;;;;18.44;61.60;93161.22;2068227;69;20520;-73
2022/07/10 02:57:31;;;;;;;4.03;2.00;;;;;;;18.46;62.42;93164.13;2068026;69;20249;-74
2022/07/10 02:59:56;;;;;;;3.15;1.75;;;;;;;18.37;63.04;93159.50;2068057;69;20619;-74
2022/07/10 03:02:23;;;;;;;3.25;1.92;;;;;;;18.26;63.13;93150.56;2068346;69;20152;-73
2022/07/10 03:04:49;;;;;;;3.75;1.90;;;;;;;18.31;62.69;93153.56;2068375;69;20202;-74
2022/07/10 03:07:16;;;;;;;2.60;1.80;;;;;;;18.28;62.86;93150.66;2068177;69;20152;-74
2022/07/10 03:09:41;;;;;;;3.88;1.77;;;;;;;18.29;62.53;93145.69;2068291;69;20233;-74
2022/07/10 03:12:07;;;;;;;5.63;1.80;;;;;;;18.26;62.43;93141.28;2069490;69;20597;-74
2022/07/10 03:14:33;;;;;;;6.13;1.80;;;;;;;18.37;61.83;93142.41;2071602;69;20140;-74
2022/07/10 03:16:59;;;;;;;2.60;1.80;;;;;;;18.16;63.76;93141.63;2071381;69;20152;-74
2022/07/10 03:19:28;;;;;;;2.97;1.85;;;;;;;18.14;63.59;93143.63;2071644;69;20628;-74
2022/07/10 03:21:54;;;;;;;4.53;2.10;;;;;;;18.28;63.12;93144.22;2071350;69;20141;-73
2022/07/10 03:24:20;;;;;;;4.90;2.00;;;;;;;18.14;63.94;93137.94;2071507;69;20171;-75
2022/07/10 03:26:45;;;;;;;3.10;2.00;;;;;;;18.15;63.66;93143.00;2068583;69;20137;-75
2022/07/10 03:29:13;;;;;;;4.15;2.28;;;;;;;18.18;63.62;93140.94;2071889;69;20298;-75
2022/07/10 03:31:40;;;;;;;3.13;2.05;;;;;;;18.20;63.28;93132.50;2071805;69;20215;-75
2022/07/10 03:34:05;;;;;;;2.72;1.70;;;;;;;18.25;62.79;93134.13;2068585;69;20580;-75
2022/07/10 03:36:33;;;;;;;2.63;1.92;;;;;;;18.21;63.13;93136.81;2065754;69;20160;-75
2022/07/10 03:38:58;;;;;;;2.15;1.77;;;;;;;18.04;63.35;93141.13;2072014;69;20187;-74
2022/07/10 03:41:24;;;;;;;4.20;2.10;;;;;;;18.15;62.69;93145.84;2071875;69;20512;-74
2022/07/10 03:43:49;;;;;;;3.00;2.17;;;;;;;18.10;62.58;93138.53;2071720;69;20129;-74
2022/07/10 03:46:16;;;;;;;3.70;2.00;;;;;;;18.16;62.51;93138.75;2071916;69;20194;-74
2022/07/10 03:48:42;;;;;;;5.18;2.33;;;;;;;18.13;63.96;93140.06;2071847;69;20203;-74
2022/07/10 03:51:07;;;;;;;2.65;1.85;;;;;;;17.95;64.87;93137.22;2071661;69;20144;-74
2022/07/10 03:53:34;;;;;;;3.00;2.13;;;;;;;18.04;63.90;93144.69;2071730;69;20153;-74
2022/07/10 03:56:00;;;;;;;3.40;2.05;;;;;;;18.07;63.59;93147.63;2071779;69;20540;-74
2022/07/10 03:58:26;;;;;;;3.38;1.90;;;;;;;18.02;64.56;93146.75;2065692;69;20521;-74
2022/07/10 04:00:53;;;;;;;3.25;2.00;;;;;;;18.02;65.03;93156.03;2071716;69;20144;-74
2022/07/10 04:03:19;;;;;;;3.95;2.03;;;;;;;17.96;65.46;93144.38;2071802;69;20682;-73
2022/07/10 04:05:45;;;;;;;4.95;2.20;;;;;;;17.99;64.75;93137.38;2068338;69;20244;-74
2022/07/10 04:08:10;;;;;;;6.03;2.30;;;;;;;17.80;65.90;93140.88;2071540;69;20627;-74
2022/07/10 04:10:37;;;;;;;3.90;2.10;;;;;;;18.01;63.36;93131.03;2071758;69;20202;-74
2022/07/10 04:13:02;;;;;;;4.72;2.45;;;;;;;17.95;63.91;93127.94;2065553;69;20531;-74
2022/07/10 04:15:29;;;;;;;4.28;2.10;;;;;;;18.13;62.86;93134.34;2071721;69;20627;-74
2022/07/10 04:17:56;;;;;;;3.55;2.00;;;;;;;18.15;61.19;93128.75;2065694;69;20592;-74
2022/07/10 04:20:24;;;;;;;6.35;2.20;;;;;;;17.78;64.79;93126.56;2071663;69;20569;-74
2022/07/10 04:22:50;;;;;;;4.22;1.98;;;;;;;17.95;64.79;93128.66;2068341;69;20584;-74
2022/07/10 04:25:16;;;;;;;5.53;1.90;;;;;;;18.04;64.72;93124.03;2068292;69;20148;-74
2022/07/10 04:27:42;;;;;;;5.00;2.60;;;;;;;17.68;66.08;93126.81;2071629;69;20164;-74
2022/07/10 04:30:08;;;;;;;4.70;2.22;;;;;;;17.44;66.91;93122.97;2071700;69;20160;-74
2022/07/10 04:32:35;;;;;;;4.50;2.25;;;;;;;17.76;64.20;93127.19;2071620;69;20155;-74
2022/07/10 04:35:01;;;;;;;3.40;2.13;;;;;;;18.00;64.89;93129.56;2068262;69;20214;-74
2022/07/10 04:37:29;;;;;;;3.08;2.05;;;;;;;17.97;66.11;93131.59;2068233;69;20152;-74
2022/07/10 04:39:56;;;;;;;3.70;2.15;;;;;;;18.13;64.58;93139.31;2071471;69;20606;-74
2022/07/10 04:42:24;;;;;;;3.50;1.85;;;;;;;18.09;64.35;93134.19;2071416;69;20148;-74
2022/07/10 04:44:49;;;;;;;4.32;2.00;;;;;;;18.08;64.38;93141.28;2068237;69;20516;-74
2022/07/10 04:47:16;;;;;;;3.88;2.25;;;;;;;18.05;64.11;93139.72;2071544;69;20151;-74
2022/07/10 04:49:41;;;;;;;4.15;2.42;;;;;;;17.98;64.68;93138.03;2071497;69;20144;-74
2022/07/10 04:52:08;;;;;;;4.35;2.20;;;;;;;18.25;60.02;93134.84;2071488;69;20140;-74
2022/07/10 04:54:34;;;;;;;2.72;2.28;;;;;;;18.09;62.84;93134.19;2071582;69;20140;-74
2022/07/10 04:57:00;;;;;;;4.60;2.55;;;;;;;17.91;63.44;93139.16;2068213;69;20144;-74
2022/07/10 04:59:26;;;;;;;2.90;2.40;;;;;;;18.14;62.45;93137.94;2071580;69;20213;-74
2022/07/10 05:01:51;;;;;;;5.50;2.58;;;;;;;18.22;63.30;93121.16;2071411;69;20171;-74
2022/07/10 05:04:17;;;;;;;4.65;2.25;;;;;;;18.24;64.19;93132.66;2071553;69;20153;-74
2022/07/10 05:06:43;;;;;;;4.90;2.45;;;;;;;18.35;64.50;93134.50;2071419;69;20148;-74
2022/07/10 05:09:08;;;;;;;3.40;2.10;;;;;;;18.37;63.68;93131.00;2071538;69;20133;-74
2022/07/10 05:11:35;;;;;;;3.80;2.10;;;;;;;18.49;60.79;93129.34;2071436;69;20480;-74
2022/07/10 05:14:01;;;;;;;3.97;2.20;;;;;;;18.50;62.46;93130.81;2068242;69;20133;-74
2022/07/10 05:16:26;;;;;;;4.28;2.22;;;;;;;18.44;62.88;93124.88;2071460;69;20228;-74
2022/07/10 05:18:52;;;;;;;5.60;2.70;;;;;;;18.25;63.67;93125.56;2071475;69;20247;-74
2022/07/10 05:21:18;;;;;;;3.90;2.40;;;;;;;18.48;61.80;93127.16;2068230;69;20140;-74
2022/07/10 05:23:45;;;;;;;3.45;2.22;;;;;;;18.62;58.36;93130.56;2071711;69;20201;-74
2022/07/10 05:26:10;;;;;;;3.55;2.30;;;;;;;18.57;59.70;93133.91;2071908;69;20136;-75
2022/07/10 05:28:36;;;;;;;5.28;2.60;;;;;;;18.56;61.70;93135.31;2071911;69;20147;-75
2022/07/10 05:31:02;;;;;;;5.00;2.60;;;;;;;18.52;61.35;93133.03;2071967;69;20167;-74
2022/07/10 05:33:28;;;;;;;4.18;2.72;;;;;;;18.27;62.42;93134.91;2072087;69;20148;-74
2022/07/10 05:35:54;;;;;;;7.15;2.63;;;;;;;18.06;63.40;93140.47;2071999;69;20131;-74
2022/07/10 05:38:20;;;;;;;4.70;2.70;;;;;;;18.29;62.99;93129.31;2071885;69;20547;-74
2022/07/10 05:40:46;;;;;;;3.63;2.60;;;;;;;18.56;62.59;93124.63;2071935;69;20140;-74
2022/07/10 05:43:12;;;;;;;4.70;2.40;;;;;;;18.65;61.55;93134.94;2072071;69;20160;-74
2022/07/10 05:45:38;;;;;;;4.78;2.65;;;;;;;18.64;60.78;93122.06;2072048;69;20227;-74
2022/07/10 05:48:03;;;;;;;3.22;2.50;;;;;;;18.64;60.93;93122.06;2072017;69;20156;-74
2022/07/10 05:50:30;;;;;;;3.63;2.53;;;;;;;18.83;59.13;93131.31;2071810;69;20132;-74
2022/07/10 05:52:56;;;;;;;4.88;2.58;;;;;;;18.90;61.08;93136.59;2071631;69;20159;-74
2022/07/10 05:55:23;;;;;;;3.67;2.20;;;;;;;18.98;60.62;93141.88;2071820;69;20268;-74
2022/07/10 05:57:50;;;;;;;4.28;2.80;;;;;;;18.03;63.17;93140.38;2071752;69;20152;-75
2022/07/10 06:00:16;;;;;;;4.82;3.05;;;;;;;17.95;62.71;93154.28;2071871;69;20152;-74
2022/07/10 06:02:42;;;;;;;5.25;3.22;;;;;;;18.04;61.93;93138.28;2071763;69;20131;-74
2022/07/10 06:05:08;;;;;;;3.42;2.80;;;;;;;18.51;60.51;93145.81;2071763;69;20132;-74
2022/07/10 06:07:34;;;;;;;3.92;2.67;;;;;;;18.56;58.78;93138.88;2071706;69;20145;-74
2022/07/10 06:10:00;;;;;;;4.68;3.20;;;;;;;18.76;59.21;93139.66;2072016;69;20476;-74
2022/07/10 06:12:26;;;;;;;4.75;3.08;;;;;;;18.82;58.59;93142.00;2071810;69;20152;-74
2022/07/10 06:14:52;;;;;;;5.30;3.08;;;;;;;18.73;58.79;93146.69;2071829;69;20674;-74
2022/07/10 06:17:18;;;;;;;3.58;2.80;;;;;;;18.83;59.70;93142.72;2071903;69;20155;-74
2022/07/10 06:19:44;;;;;;;3.78;2.80;;;;;;;18.78;59.93;93139.00;2071815;69;20129;-74
2022/07/10 06:24:55;;;;;;;4.68;3.72;;;;;;;17.94;62.56;93132.91;2071818;69;20152;-74
2022/07/10 06:27:22;;;;;;;9.65;3.50;;;;;;;18.45;61.23;93134.16;2068757;69;20668;-73
2022/07/10 06:29:48;;;;;;;3.95;3.30;;;;;;;18.53;62.00;93143.03;2071849;69;20159;-74
2022/07/10 06:32:13;;;;;;;4.68;3.05;;;;;;;18.62;62.01;93135.53;2071842;69;20524;-73
2022/07/10 06:34:39;;;;;;;6.07;3.03;;;;;;;18.66;61.18;93135.69;2071842;69;20143;-73
2022/07/10 06:37:05;;;;;;;4.13;3.08;;;;;;;18.71;60.95;93140.91;2071806;69;20228;-74
2022/07/10 06:39:36;;;;;;;6.93;2.95;;;;;;;18.81;59.78;93137.69;2071840;69;20237;-74
2022/07/10 06:42:03;;;;;;;4.55;3.30;;;;;;;18.80;59.91;93124.84;2072059;69;20184;-74
2022/07/10 06:44:29;;;;;;;4.30;3.00;;;;;;;18.79;59.69;93124.09;2071835;69;20136;-74
2022/07/10 06:49:41;;;;;;;6.93;2.70;;;;;;;18.91;62.45;93132.38;2069136;69;20596;-73
2022/07/10 06:52:07;;;;;;;4.38;2.90;;;;;;;18.94;59.93;93136.03;2071746;69;20141;-74
2022/07/10 06:54:33;;;;;;;8.25;3.20;;;;;;;18.96;61.02;93148.22;2071816;69;20190;-74
2022/07/10 06:56:59;;;;;;;7.22;3.17;;;;;;;18.85;59.62;93152.13;2071774;69;20599;-74
2022/07/10 06:59:24;;;;;;;6.60;3.45;;;;;;;18.40;60.32;93150.38;2071807;69;20140;-74
2022/07/10 07:01:50;;;;;;;4.50;3.47;;;;;;;18.32;60.31;93152.91;2071682;69;20650;-74
2022/07/10 07:04:16;;;;;;;6.00;3.33;;;;;;;17.74;63.39;93169.84;2071899;69;20227;-74
2022/07/10 07:06:41;;;;;;;4.25;3.22;;;;;;;18.11;63.13;93165.63;2068287;69;20151;-74
2022/07/10 07:09:07;;;;;;;6.03;3.70;;;;;;;17.98;64.40;93163.66;2071863;69;20582;-74
2022/07/10 07:11:33;;;;;;;4.47;4.05;;;;;;;18.63;61.47;93160.53;2071787;69;20146;-74
2022/07/10 07:13:58;;;;;;;6.40;4.03;;;;;;;18.85;60.71;93152.13;2072037;69;20124;-74
2022/07/10 07:16:37;;;;;;;7.35;3.53;;;;;;;18.70;59.54;93148.00;2071855;69;20597;-75
2022/07/10 07:19:04;;;;;;;5.00;3.50;;;;;;;18.91;60.41;93143.03;2071762;69;20531;-74
2022/07/10 07:24:21;;;;;;;7.55;3.95;;;;;;;18.83;62.25;93139.88;2071985;69;20563;-74
2022/07/10 07:26:47;;;;;;;4.07;3.67;;;;;;;18.65;61.70;93129.25;2068589;69;20168;-74
2022/07/10 07:29:17;;;;;;;4.97;3.70;;;;;;;18.62;61.07;93135.53;2071929;69;20152;-75
2022/07/10 07:31:45;;;;;;;5.53;3.80;;;;;;;18.42;61.80;93136.22;2072099;69;20235;-75
2022/07/10 07:34:11;;;;;;;5.00;3.38;;;;;;;18.65;60.92;93143.50;2069016;69;20236;-74
2022/07/10 07:36:37;;;;;;;6.53;3.42;;;;;;;19.09;59.42;93135.16;2072240;69;20193;-75
2022/07/10 07:39:04;;;;;;;7.07;3.70;;;;;;;19.32;59.76;93130.25;2072396;69;20152;-75
2022/07/10 07:41:30;;;;;;;4.75;3.58;;;;;;;18.95;59.90;93126.09;2072098;69;20151;-74
2022/07/10 07:43:56;;;;;;;9.55;3.45;;;;;;;19.03;59.64;93132.09;2068711;69;20136;-75
2022/07/10 07:46:21;;;;;;;5.18;3.22;;;;;;;19.25;58.96;93137.88;2072191;69;20143;-75
2022/07/10 07:48:47;;;;;;;4.88;3.20;;;;;;;18.94;60.26;93141.75;2072224;69;20241;-74
2022/07/10 07:51:13;;;;;;;6.03;3.45;;;;;;;18.86;60.58;93141.44;2068519;69;20156;-75
2022/07/10 07:53:39;;;;;;;5.10;3.22;;;;;;;19.11;59.43;93135.25;2071848;69;20136;-75
2022/07/10 07:56:05;;;;;;;7.03;3.33;;;;;;;19.08;60.50;93130.13;2071860;69;20219;-74
2022/07/10 07:58:31;;;;;;;6.57;3.58;;;;;;;18.83;60.29;93132.09;2071658;69;20140;-74
2022/07/10 08:00:58;;;;;;;5.10;3.30;;;;;;;19.23;58.26;93123.50;2071759;69;20255;-74
2022/07/10 08:03:24;;;;;;;4.75;3.50;;;;;;;19.12;59.44;93122.44;2071740;69;20232;-74
2022/07/10 08:05:49;;;;;;;5.38;3.50;;;;;;;18.01;62.96;93126.06;2071670;69;20601;-74
2022/07/10 08:08:15;;;;;;;8.75;3.60;;;;;;;18.17;63.18;93125.25;2071717;69;20610;-74
2022/07/10 08:10:41;;;;;;;4.18;3.50;;;;;;;18.45;62.37;93134.91;2071959;69;20184;-74
2022/07/10 08:13:07;;;;;;;5.00;3.70;;;;;;;18.46;62.38;93127.84;2071561;69;20154;-74
2022/07/10 08:15:34;;;;;;;8.02;3.90;;;;;;;18.50;62.62;93130.81;2071616;69;20206;-74
2022/07/10 08:18:03;;;;;;;5.93;4.03;;;;;;;18.61;62.57;93131.94;2071605;69;20168;-73
2022/07/10 08:20:29;;;;;;;4.20;3.80;;;;;;;19.04;61.05;93139.97;2071570;69;20152;-74
2022/07/10 08:22:55;;;;;;;6.28;3.70;;;;;;;18.88;61.37;93142.25;2071489;69;20514;-74
2022/07/10 08:25:21;;;;;;;6.72;3.60;;;;;;;18.75;61.97;93137.47;2071583;69;20155;-74
2022/07/10 08:27:48;;;;;;;4.13;3.53;;;;;;;18.64;62.55;93144.88;2071545;69;20205;-73
2022/07/10 08:30:13;;;;;;;6.03;3.95;;;;;;;18.68;62.11;93144.31;2068276;69;20292;-74
2022/07/10 08:32:40;;;;;;;6.07;3.70;;;;;;;18.32;63.79;93144.34;2071534;69;20260;-75
2022/07/10 08:35:07;;;;;;;5.45;3.50;;;;;;;18.53;62.37;93138.06;2071548;69;20152;-75
2022/07/10 08:37:40;;;;;;;5.93;3.70;;;;;;;18.83;61.89;93154.91;2071611;69;20330;-75
2022/07/10 08:40:08;;;;;;;4.13;3.60;;;;;;;18.44;62.58;93149.81;2071532;69;20618;-75
2022/07/10 08:42:34;;;;;;;5.32;3.47;;;;;;;18.69;61.68;93155.09;2071494;69;20144;-75
2022/07/10 08:44:59;;;;;;;6.63;3.60;;;;;;;18.60;62.13;93149.69;2071518;69;20166;-73
2022/07/10 08:47:27;;;;;;;5.38;3.30;;;;;;;19.01;62.03;93155.56;2071513;69;20149;-75
2022/07/10 08:49:52;;;;;;;5.90;3.45;;;;;;;18.44;63.12;93159.09;2071459;69;20528;-73
2022/07/10 08:52:31;;;;;;;4.65;3.17;;;;;;;19.19;61.04;93155.47;2071323;69;20136;-74
2022/07/10 08:54:58;;;;;;;5.65;3.33;;;;;;;18.46;63.46;93156.34;2071253;69;20627;-74
2022/07/10 08:57:26;;;;;;;4.32;3.50;;;;;;;18.77;62.18;93151.81;2072069;69;20254;-75
2022/07/10 08:59:51;;;;;;;3.85;3.17;;;;;;;18.88;61.66;93145.09;2072056;69;20624;-75
2022/07/10 09:02:17;;;;;;;3.92;3.08;;;;;;;19.18;60.77;93150.44;2072144;69;20234;-75
2022/07/10 09:04:43;;;;;;;6.30;3.30;;;;;;;19.40;60.35;93156.94;2072037;69;20247;-74
2022/07/10 09:07:09;;;;;;;4.20;3.05;;;;;;;19.46;60.20;93160.00;2072026;69;20133;-75
2022/07/10 09:09:57;;;;;;;3.92;3.05;;;;;;;19.30;60.95;93159.47;2072060;69;20163;-75
2022/07/10 09:12:24;;;;;;;6.07;3.50;;;;;;;19.08;61.16;93159.38;2071964;69;20632;-74
2022/07/10 09:14:51;;;;;;;3.97;3.00;;;;;;;18.52;63.53;93167.97;2072033;69;20144;-75
2022/07/10 09:17:18;;;;;;;5.18;3.15;;;;;;;19.28;60.93;93167.94;2072025;69;20148;-75
2022/07/10 09:19:44;;;;;;;3.78;3.38;;;;;;;19.26;61.22;93167.88;2072081;69;20239;-75
2022/07/10 09:22:11;;;;;;;3.40;2.90;;;;;;;19.91;59.27;93169.41;2071838;69;20144;-75
2022/07/10 09:24:46;;;;;;;3.90;3.10;;;;;;;20.30;57.28;93154.28;2072090;69;20146;-75
2022/07/10 09:27:14;;;;;;;3.95;2.78;;;;;;;20.51;57.40;93150.66;2072042;69;20227;-75
2022/07/10 09:29:59;;;;;;;6.57;3.25;;;;;;;20.92;57.42;93160.47;2072075;69;20144;-75
2022/07/10 09:32:26;;;;;;;4.45;3.45;;;;;;;20.33;58.14;93161.50;2072126;69;20156;-75
2022/07/10 09:37:39;;;;;;;5.10;3.10;;;;;;;20.89;56.15;93152.50;2071857;69;20128;-75
2022/07/10 09:40:07;;;;;;;3.75;3.05;;;;;;;20.16;57.32;93153.78;2072063;69;20152;-75
2022/07/10 09:42:42;;;;;;;7.93;4.30;;;;;;;19.89;58.14;93169.38;2071998;69;20156;-74
2022/07/10 09:45:17;;;;;;;4.30;3.33;;;;;;;20.69;56.13;93155.50;2072149;69;20144;-74
2022/07/10 09:47:49;;;;;;;7.47;4.57;;;;;;;20.22;57.21;93166.16;2071961;69;20176;-75
2022/07/10 09:50:24;;;;;;;14.70;7.13;;;;;;;19.65;58.74;93164.25;2071945;69;20199;-73
2022/07/10 09:53:00;;;;;;;8.30;5.55;;;;;;;20.53;56.05;93158.59;2068563;69;20215;-74
2022/07/10 09:55:29;;;;;;;9.18;4.65;;;;;;;20.73;55.18;93159.22;2071876;69;20141;-75
2022/07/10 09:58:02;;;;;;;5.22;3.72;;;;;;;20.68;55.91;93160.47;2071927;69;20186;-74
2022/07/10 10:00:39;;;;;;;5.85;3.20;;;;;;;21.53;53.96;93159.41;2071894;69;20159;-75
2022/07/10 10:03:07;;;;;;;5.60;3.55;;;;;;;21.28;54.76;93155.09;2068633;69;20147;-75
2022/07/10 10:05:42;;;;;;;5.10;3.30;;;;;;;21.03;54.07;93144.34;2068470;69;20691;-74
2022/07/10 10:08:12;;;;;;;6.65;4.35;;;;;;;20.98;53.76;93140.66;2071823;69;20183;-75
2022/07/10 10:10:48;;;;;;;4.30;3.78;;;;;;;21.36;53.55;93148.88;2071848;69;20209;-75
2022/07/10 10:13:17;;;;;;;4.00;3.38;;;;;;;20.89;54.94;93147.53;2071038;69;20228;-75
2022/07/10 10:15:44;;;;;;;4.97;3.97;;;;;;;20.86;55.11;93137.41;2070728;69;20540;-75
2022/07/10 10:18:11;;;;;;;4.22;3.08;;;;;;;21.73;54.11;93136.28;2070978;69;20190;-75
2022/07/10 10:20:37;;;;;;;5.47;3.15;;;;;;;22.81;53.09;93141.03;2071026;69;20160;-76
2022/07/10 10:23:10;;;;;;;4.93;3.40;;;;;;;23.65;51.68;93134.19;2071330;69;20172;-75
2022/07/10 10:25:37;;;;;;;6.43;3.60;;;;;;;23.28;50.23;93134.19;2068127;69;20144;-79
2022/07/10 10:28:06;;;;;;;3.75;3.10;;;;;;;22.76;50.22;93128.72;2067936;69;20175;-77
2022/07/10 10:30:32;;;;;;;6.20;3.00;;;;;;;22.67;50.35;93134.97;2071066;69;20148;-75
2022/07/10 10:32:59;;;;;;;4.40;2.97;;;;;;;21.96;51.27;93137.59;2071079;69;20247;-75
2022/07/10 10:35:48;;;;;;;2.97;2.65;;;;;;;22.19;50.52;93133.16;2071223;69;20245;-76
2022/07/10 10:38:15;;;;;;;3.65;2.75;;;;;;;22.33;51.21;93129.91;2071638;69;20263;-74
2022/07/10 10:40:41;;;;;;;3.03;2.60;;;;;;;22.71;49.29;93135.06;2071234;69;20252;-74
2022/07/10 10:43:22;;;;;;;5.50;3.95;;;;;;;22.17;49.82;93133.09;2071511;69;20214;-73
2022/07/10 10:45:50;;;;;;;3.90;2.90;;;;;;;22.48;49.93;93125.22;2067972;69;20148;-73
2022/07/10 10:48:21;;;;;;;3.08;2.78;;;;;;;23.00;49.06;93119.97;2068418;69;20623;-74
2022/07/10 10:50:49;;;;;;;3.50;2.53;;;;;;;24.08;46.49;93119.16;2064756;69;20160;-74
2022/07/10 10:53:28;;;;;;;4.25;2.47;;;;;;;24.31;45.87;93111.63;2068197;69;20152;-74
2022/07/10 10:55:59;;;;;;;2.50;2.30;;;;;;;24.12;45.34;93114.91;2068311;69;20145;-74
2022/07/10 10:58:27;;;;;;;4.32;2.17;;;;;;;23.77;46.76;93114.28;2068324;69;20211;-74
2022/07/10 11:01:03;;;;;;;2.38;2.13;;;;;;;23.82;47.19;93118.69;2067989;69;20207;-74
2022/07/10 11:03:28;;;;;;;3.45;2.17;;;;;;;23.52;46.92;93113.09;2068352;69;20140;-74
2022/07/10 11:05:54;;;;;;;3.40;2.63;;;;;;;22.78;46.56;93117.31;2068290;69;20596;-72
2022/07/10 11:08:43;;;;;;;5.32;2.38;;;;;;;23.11;46.29;93109.41;2068010;69;20260;-71
2022/07/10 11:11:30;;;;;;;2.72;2.53;;;;;;;23.18;46.29;93107.38;2068288;69;20223;-73
2022/07/10 11:14:00;;;;;;;2.60;2.30;;;;;;;23.32;46.69;93114.16;2064880;69;20132;-73
2022/07/10 11:16:25;;;;;;;3.33;2.50;;;;;;;23.55;46.69;93112.44;2068196;69;20184;-74
2022/07/10 11:18:55;;;;;;;4.85;2.28;;;;;;;23.87;47.29;93116.63;2068166;69;20528;-74
2022/07/10 11:21:26;;;;;;;3.63;2.30;;;;;;;23.66;46.21;93109.78;2068250;69;20248;-71
2022/07/10 11:24:05;;;;;;;2.70;2.30;;;;;;;27.15;39.18;93108.25;2068229;69;20623;-71
2022/07/10 11:26:57;;;;;;;3.00;2.60;;;;;;;24.68;44.79;93105.72;2068249;69;20179;-72
2022/07/10 11:29:22;;;;;;;3.38;2.63;;;;;;;24.91;44.63;93095.25;2068408;69;20125;-73
2022/07/10 11:31:54;;;;;;;4.22;2.88;;;;;;;24.34;44.22;93098.00;2064986;69;20267;-72
2022/07/10 11:34:33;;;;;;;2.63;2.20;;;;;;;24.29;44.50;93093.63;2068316;69;20148;-72
2022/07/10 11:36:59;;;;;;;3.22;2.22;;;;;;;24.40;44.60;93106.75;2064798;69;20172;-72
2022/07/10 11:39:25;;;;;;;2.90;2.25;;;;;;;24.49;45.04;93098.97;2068211;69;20144;-73
2022/07/10 11:41:51;;;;;;;3.83;2.30;;;;;;;24.03;45.78;93103.25;2068042;69;20226;-73
2022/07/10 11:44:18;;;;;;;3.25;2.40;;;;;;;24.46;46.44;93100.38;2068230;69;20227;-73
2022/07/10 11:46:44;;;;;;;2.67;2.28;;;;;;;24.63;45.74;93096.31;2068278;69;20161;-73
2022/07/10 11:49:14;;;;;;;4.40;2.35;;;;;;;25.23;44.83;93103.63;2068232;69;20141;-73